Time;durP1;ratioP1;P1;durP2;ratioP2;P2;SDS_P1;SDS_P2;PMS_P1;PMS_P2;Temp;Humidity;BMP_temperature;BMP_pressure;BME280_temperature;BME280_humidity;BME280_pressure;Samples;Min_cycle;Max_cycle;Signal;HPM_P1;HPM_P2
2023/01/27 00:03:30;;;;;;;42.15;21.92;;;;;;;0.96;85.62;97040.78;10296674;28;20688;-49
2023/01/27 00:08:29;;;;;;;42.05;22.15;;;;;;;0.89;85.62;97041.44;10296425;28;20112;-47
2023/01/27 00:13:30;;;;;;;42.00;23.35;;;;;;;0.88;85.61;97052.50;10292592;28;20568;-47
2023/01/27 00:18:29;;;;;;;40.67;22.75;;;;;;;0.88;85.86;97061.03;10295544;28;20068;-47
2023/01/27 00:28:46;;;;;;;31.10;16.92;;;;;;;1.02;85.61;97057.97;10294084;28;20074;-47
2023/01/27 00:33:48;;;;;;;31.88;18.17;;;;;;;1.01;85.49;97051.97;10278178;28;20502;-47
2023/01/27 00:38:47;;;;;;;41.40;22.15;;;;;;;0.97;85.34;97034.88;10293825;28;20065;-47
2023/01/27 00:43:46;;;;;;;;;;;;;;;0.88;85.39;97012.50;10294964;28;20072;-47
2023/01/27 00:48:46;;;;;;;49.13;29.25;;;;;;;0.78;85.16;97009.66;10290647;28;19959;-49
2023/01/27 00:53:46;;;;;;;50.58;27.75;;;;;;;0.67;86.04;97029.84;10294813;28;20065;-47
2023/01/27 00:58:45;;;;;;;42.72;24.00;;;;;;;0.55;86.47;97035.50;10291665;28;20056;-48
2023/01/27 01:03:44;;;;;;;41.33;23.30;;;;;;;0.56;86.51;97034.66;10292704;28;20065;-47
2023/01/27 01:08:43;;;;;;;41.35;21.77;;;;;;;0.48;86.56;97031.91;10285120;28;20057;-49
2023/01/27 01:13:44;;;;;;;40.05;23.52;;;;;;;0.69;86.77;97049.47;10287759;28;20036;-47
2023/01/27 01:18:43;;;;;;;47.20;24.30;;;;;;;0.73;86.74;97054.66;10280357;28;20057;-48
2023/01/27 01:23:43;;;;;;;;;;;;;;;0.52;86.22;97044.75;10277293;28;20072;-49
2023/01/27 01:28:43;;;;;;;37.00;20.83;;;;;;;0.42;86.82;97043.63;10276952;28;20337;-49
2023/01/27 01:33:43;;;;;;;26.17;14.30;;;;;;;0.33;86.98;97028.91;10286158;28;20061;-48
2023/01/27 01:38:42;;;;;;;30.08;14.88;;;;;;;0.11;87.54;97003.66;10290675;28;20065;-47
2023/01/27 01:43:41;;;;;;;24.02;13.07;;;;;;;-0.08;87.60;96943.63;10290238;28;20057;-48
2023/01/27 01:48:57;;;;;;;;;;;;;;;0.19;87.35;97008.13;10290418;28;20517;-47
2023/01/27 01:54:07;;;;;;;19.42;10.43;;;;;;;0.18;87.47;97015.75;10287873;28;19972;-48
2023/01/27 01:59:10;;;;;;;;;;;;;;;0.33;87.17;96993.19;10288504;28;20076;-48
2023/01/27 02:04:20;;;;;;;22.45;11.93;;;;;;;0.39;86.63;96983.16;10288156;28;19987;-48
2023/01/27 02:09:20;;;;;;;18.45;9.82;;;;;;;0.21;86.28;96941.84;10288265;28;20513;-48
2023/01/27 02:14:19;;;;;;;24.70;13.27;;;;;;;0.35;86.17;96960.06;10287131;28;20489;-47
2023/01/27 02:19:33;;;;;;;23.27;12.75;;;;;;;0.36;86.09;96964.34;10287337;28;20474;-50
2023/01/27 02:24:40;;;;;;;28.33;14.50;;;;;;;0.29;86.38;96948.03;10283718;28;20068;-48
2023/01/27 02:29:39;;;;;;;37.38;20.58;;;;;;;0.28;86.97;96948.84;10286930;28;20674;-47
2023/01/27 02:34:38;;;;;;;29.60;16.00;;;;;;;0.32;86.67;96948.09;10284379;28;20026;-47
2023/01/27 02:39:42;;;;;;;26.23;13.60;;;;;;;0.26;87.37;96938.63;10284412;28;20053;-47
2023/01/27 02:44:41;;;;;;;37.20;17.67;;;;;;;0.12;86.85;96924.59;10288261;28;20072;-47
2023/01/27 02:49:40;;;;;;;33.47;19.33;;;;;;;-0.11;87.15;96916.38;10288692;28;20033;-47
2023/01/27 02:54:39;;;;;;;35.97;22.13;;;;;;;-0.07;88.30;96930.91;10288780;28;20065;-48
2023/01/27 02:59:37;;;;;;;32.85;18.63;;;;;;;0.05;88.18;96944.00;10287508;28;20101;-49
2023/01/27 03:04:37;;;;;;;;;;;;;;;0.19;88.03;96944.34;10284538;28;20042;-48
2023/01/27 03:09:36;;;;;;;27.30;15.68;;;;;;;-0.12;87.83;96921.41;10288150;28;19959;-47
2023/01/27 03:19:52;;;;;;;31.65;17.83;;;;;;;0.05;88.09;96941.47;10286946;28;20069;-49
2023/01/27 03:24:51;;;;;;;33.22;20.15;;;;;;;-0.11;88.36;96920.56;10286576;28;20144;-47
2023/01/27 03:29:56;;;;;;;36.47;20.67;;;;;;;0.00;88.54;96917.50;10286892;28;20073;-48
2023/01/27 03:34:56;;;;;;;32.10;18.67;;;;;;;0.27;87.66;96901.19;10286697;28;20049;-47
2023/01/27 03:50:36;;;;;;;33.80;19.02;;;;;;;0.05;86.82;96903.19;10286901;28;20434;-48
2023/01/27 03:55:36;;;;;;;34.08;18.90;;;;;;;0.07;86.67;96903.22;10288013;28;20061;-48
2023/01/27 04:00:35;;;;;;;33.35;18.65;;;;;;;0.19;87.02;96906.06;10287964;28;20065;-50
2023/01/27 04:11:53;;;;;;;28.02;13.95;;;;;;;0.40;87.48;96938.09;10287969;28;20065;-47
2023/01/27 04:16:10;;;;;;;26.17;15.23;;;;;;;0.40;86.74;96908.31;10287272;28;20438;-49
2023/01/27 04:21:10;;;;;;;;;;;;;;;0.61;86.05;96942.88;10287962;28;20549;-50
2023/01/27 04:26:09;;;;;;;37.97;21.15;;;;;;;0.63;85.97;96954.84;10287485;28;19968;-48
2023/01/27 04:31:08;;;;;;;36.70;19.45;;;;;;;0.60;85.99;96956.47;10285307;28;20125;-48
2023/01/27 04:36:07;;;;;;;;;;;;;;;0.47;85.42;96970.59;10289107;28;20064;-47
2023/01/27 04:41:06;;;;;;;34.57;18.93;;;;;;;0.35;86.11;96968.59;10293786;28;19953;-50
2023/01/27 04:46:05;;;;;;;;;;;;;;;0.22;86.26;96979.31;10295567;28;20116;-47
2023/01/27 04:51:04;;;;;;;30.60;17.52;;;;;;;-0.40;86.96;96906.22;10294423;28;19956;-49
2023/01/27 04:56:06;;;;;;;;;;;;;;;-0.10;87.26;96983.53;10295061;28;20073;-47
2023/01/27 05:01:05;;;;;;;30.33;15.88;;;;;;;-0.37;87.96;96980.25;10294267;28;19955;-48
2023/01/27 05:06:04;;;;;;;32.83;16.92;;;;;;;-0.63;88.92;96976.03;10293976;28;20125;-49
2023/01/27 05:11:04;;;;;;;24.75;13.23;;;;;;;-0.98;90.97;96950.34;10293991;28;20066;-48
2023/01/27 05:16:08;;;;;;;26.17;15.07;;;;;;;-0.73;90.92;96964.72;10291224;28;20053;-49
2023/01/27 05:21:10;;;;;;;26.80;13.70;;;;;;;-0.48;90.69;96943.38;10293613;28;20454;-49
2023/01/27 05:26:17;;;;;;;35.45;17.70;;;;;;;-0.35;90.30;96934.38;10291851;28;20069;-48
2023/01/27 05:31:18;;;;;;;38.65;19.20;;;;;;;-0.45;89.96;96874.63;10291940;28;20100;-47
2023/01/27 05:36:18;;;;;;;43.72;21.98;;;;;;;0.17;89.35;96932.38;10291148;28;20070;-50
2023/01/27 05:41:18;;;;;;;39.33;19.10;;;;;;;0.33;88.76;96928.53;10291978;28;20080;-49
2023/01/27 05:46:20;;;;;;;41.05;21.60;;;;;;;0.50;88.24;96923.84;10291215;28;20088;-47
2023/01/27 05:51:22;;;;;;;41.55;22.38;;;;;;;0.51;86.81;96925.59;10290382;28;20065;-47
2023/01/27 05:56:22;;;;;;;31.63;16.13;;;;;;;0.52;86.94;96912.00;10289417;28;20045;-48
2023/01/27 06:01:24;;;;;;;35.38;17.20;;;;;;;0.60;86.54;96920.72;10290564;28;20066;-49
2023/01/27 06:06:24;;;;;;;54.30;28.50;;;;;;;0.61;86.23;96922.44;10288947;28;20065;-50
2023/01/27 06:11:24;;;;;;;54.72;29.08;;;;;;;0.13;85.97;96864.28;10290586;28;20077;-48
2023/01/27 06:16:23;;;;;;;61.10;31.45;;;;;;;0.39;86.01;96896.38;10288510;28;20472;-47
2023/01/27 06:21:22;;;;;;;60.95;31.17;;;;;;;0.67;85.89;96935.38;10289623;28;20457;-49
2023/01/27 06:26:21;;;;;;;47.38;25.63;;;;;;;0.74;86.02;96950.00;10289909;28;20519;-50
2023/01/27 06:31:21;;;;;;;64.22;34.70;;;;;;;0.81;85.34;96959.53;10289376;28;20052;-48
2023/01/27 06:36:21;;;;;;;61.00;34.55;;;;;;;0.87;85.27;96959.69;10289529;28;20053;-47
2023/01/27 06:41:20;;;;;;;65.03;35.70;;;;;;;0.78;85.86;96956.03;10287964;28;20069;-49
2023/01/27 06:46:19;;;;;;;61.33;33.20;;;;;;;0.88;85.59;96958.00;10289294;28;20062;-47
2023/01/27 06:51:18;;;;;;;73.93;39.45;;;;;;;0.88;85.67;96965.66;10287494;28;20053;-50
2023/01/27 06:56:17;;;;;;;59.80;33.85;;;;;;;0.88;85.68;96966.53;10288336;28;20033;-49
2023/01/27 07:01:16;;;;;;;43.63;24.77;;;;;;;0.88;86.05;96969.06;10286751;28;20503;-48
2023/01/27 07:06:17;;;;;;;46.13;25.70;;;;;;;1.07;85.02;96984.84;10286090;28;20061;-50
2023/01/27 07:11:16;;;;;;;42.78;23.73;;;;;;;1.10;83.52;96979.81;10288653;28;20053;-47
2023/01/27 07:16:15;;;;;;;54.55;31.27;;;;;;;1.09;83.12;96999.38;10288079;28;20112;-50
2023/01/27 07:21:14;;;;;;;59.00;31.13;;;;;;;1.04;82.44;96982.22;10282393;28;20066;-49
2023/01/27 07:26:13;;;;;;;53.20;30.77;;;;;;;1.19;82.71;96977.47;10287526;28;20033;-50
2023/01/27 07:31:12;;;;;;;50.53;28.40;;;;;;;1.33;81.58;96978.63;10277003;28;20038;-50
2023/01/27 07:36:11;;;;;;;;;;;;;;;1.17;81.34;96985.94;10286250;28;20058;-49
2023/01/27 07:41:10;;;;;;;34.40;20.75;;;;;;;1.25;81.78;96990.41;10285631;28;19944;-50
2023/01/27 07:46:09;;;;;;;;;;;;;;;1.41;82.12;96981.38;10284624;28;20144;-49
2023/01/27 07:51:12;;;;;;;44.83;26.15;;;;;;;1.44;80.91;96981.44;10285957;28;19944;-48
2023/01/27 07:56:11;;;;;;;48.30;26.88;;;;;;;1.33;81.10;96958.19;10286686;28;20527;-51
2023/01/27 08:01:11;;;;;;;36.00;19.88;;;;;;;1.56;79.80;96972.31;10286472;28;20552;-49
2023/01/27 08:06:11;;;;;;;34.05;20.67;;;;;;;1.48;80.26;96978.13;10284412;28;20068;-47
2023/01/27 08:11:16;;;;;;;64.97;32.28;;;;;;;1.79;81.48;96980.50;10287415;28;20065;-50
2023/01/27 08:16:15;;;;;;;32.10;17.95;;;;;;;1.93;80.11;96984.19;10295280;28;20072;-48
2023/01/27 08:21:14;;;;;;;;;;;;;;;2.02;80.46;96986.94;10296346;28;20084;-49
2023/01/27 08:26:13;;;;;;;235.25;93.45;;;;;;;2.13;80.31;96979.44;10296114;28;20711;-50
2023/01/27 08:31:14;;;;;;;35.80;20.08;;;;;;;2.32;78.66;96978.97;10290627;28;20073;-49
2023/01/27 08:36:15;;;;;;;26.27;15.45;;;;;;;2.34;75.93;96984.13;10286269;28;20053;-50
2023/01/27 08:41:18;;;;;;;26.85;16.25;;;;;;;2.05;77.12;96981.88;10285512;28;20065;-49
2023/01/27 08:46:17;;;;;;;35.95;20.13;;;;;;;1.42;77.79;96908.97;10284375;28;20136;-48
2023/01/27 08:51:16;;;;;;;;;;;;;;;1.90;76.65;96984.09;10293483;28;20072;-51
2023/01/27 08:56:15;;;;;;;28.13;15.70;;;;;;;1.83;76.97;96954.97;10290509;28;19999;-48
2023/01/27 09:01:15;;;;;;;27.98;16.45;;;;;;;2.12;75.63;96986.28;10293283;28;20061;-50
2023/01/27 09:06:15;;;;;;;30.52;17.73;;;;;;;2.20;76.36;96976.16;10293024;28;20069;-48
2023/01/27 09:11:16;;;;;;;36.15;21.75;;;;;;;2.37;75.75;96971.38;10292371;28;20519;-48
2023/01/27 09:16:15;;;;;;;35.67;22.80;;;;;;;2.47;74.98;96967.31;10293389;28;20084;-50
2023/01/27 09:21:14;;;;;;;34.55;19.35;;;;;;;2.57;74.71;96961.50;10292472;28;20029;-50
2023/01/27 09:26:13;;;;;;;31.08;19.77;;;;;;;2.68;74.72;96954.00;10290412;28;20038;-50
2023/01/27 09:31:12;;;;;;;;;;;;;;;2.78;74.57;96950.75;10289186;28;20069;-49
2023/01/27 09:36:15;;;;;;;46.47;25.55;;;;;;;2.82;72.86;96937.16;10278191;28;19920;-50
2023/01/27 09:41:28;;;;;;;32.47;19.30;;;;;;;2.76;71.18;96937.91;10288189;28;20052;-50
2023/01/27 09:46:27;;;;;;;29.80;17.67;;;;;;;2.69;72.34;96937.78;10285978;28;20054;-47
2023/01/27 09:52:06;;;;;;;25.23;15.45;;;;;;;2.64;71.98;96931.72;10289540;28;20045;-48
2023/01/27 09:57:13;;;;;;;20.10;12.25;;;;;;;2.60;71.34;96915.44;10278566;28;20061;-49
2023/01/27 10:03:01;;;;;;;31.77;17.20;;;;;;;2.85;72.64;96926.94;10273178;28;21214;-51
2023/01/27 10:08:30;;;;;;;22.52;12.20;;;;;;;3.04;70.96;96922.13;10281584;28;20069;-48
2023/01/27 10:13:44;;;;;;;24.08;14.23;;;;;;;3.16;68.42;96922.28;10282487;28;20466;-49
2023/01/27 10:19:11;;;;;;;29.10;17.27;;;;;;;3.17;69.69;96921.47;10283603;28;20068;-48
2023/01/27 10:24:42;;;;;;;31.58;17.00;;;;;;;3.29;69.89;96908.81;10284694;28;20584;-51
2023/01/27 10:29:49;;;;;;;26.65;17.38;;;;;;;3.49;68.90;96905.66;10283557;28;20157;-48
2023/01/27 10:34:56;;;;;;;30.65;19.30;;;;;;;3.37;68.45;96891.81;10282933;28;20117;-49
2023/01/27 10:40:20;;;;;;;29.27;18.08;;;;;;;3.32;68.26;96893.47;10283799;28;20525;-51
2023/01/27 10:45:38;;;;;;;38.35;23.20;;;;;;;3.42;68.63;96895.31;10283640;28;20133;-48
2023/01/27 10:50:55;;;;;;;42.40;27.42;;;;;;;2.15;66.95;96702.22;10284374;28;20121;-49
2023/01/27 10:55:59;;;;;;;41.45;26.48;;;;;;;3.05;69.20;96899.09;10281024;28;20108;-49
2023/01/27 11:01:00;;;;;;;56.75;33.80;;;;;;;2.96;70.79;96898.94;10282222;28;20132;-50
2023/01/27 11:06:07;;;;;;;41.97;27.77;;;;;;;2.99;71.66;96889.59;10283751;28;20124;-48
2023/01/27 11:16:31;;;;;;;26.20;16.15;;;;;;;3.02;68.94;96879.38;10282995;28;20053;-48
2023/01/27 11:21:31;;;;;;;25.42;16.80;;;;;;;2.82;69.73;96860.28;10283844;28;20061;-49
2023/01/27 11:26:38;;;;;;;28.02;16.75;;;;;;;3.05;70.46;96883.69;10283318;28;20117;-48
2023/01/27 11:32:14;;;;;;;34.50;20.75;;;;;;;3.14;70.64;96888.94;10283203;28;20525;-48
2023/01/27 11:37:36;;;;;;;23.48;14.40;;;;;;;3.05;69.50;96877.69;10279164;28;20061;-50
2023/01/27 11:42:36;;;;;;;24.42;15.45;;;;;;;2.74;69.60;96872.13;10282729;28;20117;-48
2023/01/27 11:47:39;;;;;;;41.67;24.90;;;;;;;2.75;71.32;96889.22;10280667;28;20204;-49
2023/01/27 11:52:38;;;;;;;22.95;14.80;;;;;;;2.71;70.50;96872.06;10283591;28;20117;-48
2023/01/27 11:57:42;;;;;;;69.28;42.45;;;;;;;2.61;72.08;96852.28;10284330;28;20029;-48
2023/01/27 12:02:46;;;;;;;78.63;46.53;;;;;;;2.44;72.31;96877.59;10266332;28;20471;-48
2023/01/27 12:08:03;;;;;;;65.95;38.05;;;;;;;2.54;73.98;96875.22;10279880;28;20125;-49
2023/01/27 12:13:25;;;;;;;25.70;14.75;;;;;;;2.63;73.46;96869.41;10275702;28;20057;-48
2023/01/27 12:18:24;;;;;;;17.08;10.50;;;;;;;2.59;73.80;96837.75;10268954;28;20084;-48
2023/01/27 12:23:30;;;;;;;23.23;14.20;;;;;;;2.90;73.99;96863.81;10283312;28;20057;-48
2023/01/27 12:28:39;;;;;;;26.35;15.07;;;;;;;2.81;73.20;96832.94;10285475;28;20066;-48
2023/01/27 12:33:43;;;;;;;71.03;44.10;;;;;;;3.04;73.68;96861.47;10285342;28;20068;-49
2023/01/27 12:38:51;;;;;;;67.32;42.35;;;;;;;3.04;74.37;96868.28;10284082;28;20764;-50
2023/01/27 12:43:55;;;;;;;61.63;38.72;;;;;;;2.96;74.74;96878.44;10282422;28;20064;-50
2023/01/27 12:49:19;;;;;;;48.63;31.83;;;;;;;2.67;75.57;96875.41;10285309;28;20069;-50
2023/01/27 12:54:23;;;;;;;31.85;21.67;;;;;;;2.55;76.06;96876.94;10285554;28;20061;-49
2023/01/27 12:59:24;;;;;;;28.63;20.52;;;;;;;2.41;76.38;96873.28;10286263;28;20092;-50
2023/01/27 13:04:25;;;;;;;23.40;14.10;;;;;;;2.25;76.74;96876.44;10290388;28;20061;-48
2023/01/27 13:10:00;;;;;;;20.23;11.02;;;;;;;2.27;76.70;96883.31;10290832;28;20053;-47
2023/01/27 13:15:14;;;;;;;14.82;8.80;;;;;;;2.19;76.79;96889.13;10291381;28;20054;-49
2023/01/27 13:20:16;;;;;;;20.77;13.18;;;;;;;2.13;77.64;96895.84;10290561;28;20056;-48
2023/01/27 13:25:23;;;;;;;36.50;23.08;;;;;;;2.16;77.98;96889.91;10290102;28;20049;-48
2023/01/27 13:30:34;;;;;;;24.35;14.55;;;;;;;1.82;79.14;96898.69;10284610;28;21627;-49
2023/01/27 13:36:03;;;;;;;17.90;12.00;;;;;;;1.40;80.39;96902.94;10290840;28;20058;-50
2023/01/27 13:41:12;;;;;;;29.70;18.10;;;;;;;1.44;81.00;96903.91;10286691;28;20892;-48
2023/01/27 13:46:14;;;;;;;20.23;13.98;;;;;;;1.50;80.84;96904.84;10287213;28;20042;-47
2023/01/27 13:51:16;;;;;;;23.45;16.13;;;;;;;1.41;81.65;96919.16;10288790;28;20060;-47
2023/01/27 13:56:27;;;;;;;19.20;12.60;;;;;;;1.18;82.08;96916.97;10288970;28;20076;-48
2023/01/27 14:02:00;;;;;;;23.55;14.80;;;;;;;1.12;82.87;96921.94;10289263;28;20064;-49
2023/01/27 14:07:25;;;;;;;26.80;20.58;;;;;;;1.15;82.83;96919.44;10288767;28;20577;-50
2023/01/27 14:12:44;;;;;;;27.25;16.95;;;;;;;1.16;83.39;96913.53;10257661;28;20073;-47
2023/01/27 14:17:56;;;;;;;22.05;15.25;;;;;;;1.21;83.07;96921.28;10288411;28;20057;-49
2023/01/27 14:23:19;;;;;;;19.20;12.63;;;;;;;0.97;83.57;96929.28;10288761;28;20061;-47
2023/01/27 14:28:38;;;;;;;44.70;29.17;;;;;;;0.99;83.83;96937.81;10287069;28;20121;-50
2023/01/27 14:33:52;;;;;;;28.67;18.52;;;;;;;1.18;82.80;96939.97;10282373;28;20061;-49
2023/01/27 14:38:51;;;;;;;23.38;15.10;;;;;;;1.12;83.24;96942.38;10287812;28;20464;-50
2023/01/27 14:44:05;;;;;;;25.10;16.23;;;;;;;1.06;84.72;96937.13;10287730;28;20445;-47
2023/01/27 14:49:20;;;;;;;24.42;15.90;;;;;;;1.12;84.89;96942.38;10286992;28;20583;-47
2023/01/27 14:54:37;;;;;;;25.67;16.52;;;;;;;1.22;85.10;96951.09;10288946;28;20065;-47
2023/01/27 14:59:42;;;;;;;40.47;26.88;;;;;;;1.31;84.86;96959.84;10280020;28;20149;-49
2023/01/27 15:05:24;;;;;;;37.20;24.90;;;;;;;1.12;86.40;96962.81;10288159;28;20062;-48
2023/01/27 15:10:31;;;;;;;25.80;16.10;;;;;;;0.88;87.04;96969.06;10242702;28;20077;-50
2023/01/27 15:15:37;;;;;;;25.02;17.67;;;;;;;0.87;87.69;96967.38;10286609;28;20061;-50
2023/01/27 15:20:45;;;;;;;22.65;16.60;;;;;;;0.98;87.20;96975.25;10286119;28;20512;-46
2023/01/27 15:25:49;;;;;;;28.70;19.27;;;;;;;1.08;87.09;96976.34;10285935;28;20092;-46
2023/01/27 15:31:15;;;;;;;31.83;25.67;;;;;;;1.02;87.37;96979.63;10286835;28;20089;-46
2023/01/27 15:36:31;;;;;;;41.33;30.10;;;;;;;0.82;87.63;96979.13;10288044;28;20065;-46
2023/01/27 15:41:30;;;;;;;22.13;14.80;;;;;;;0.69;88.07;96984.78;10286438;28;20058;-49
2023/01/27 15:46:35;;;;;;;26.27;17.55;;;;;;;0.74;87.92;96977.25;10287501;28;20030;-50
2023/01/27 15:51:36;;;;;;;32.78;20.85;;;;;;;0.74;88.42;96990.00;10285784;28;20069;-50
2023/01/27 15:56:51;;;;;;;27.45;14.38;;;;;;;0.55;88.31;96992.09;10283061;28;20057;-48
2023/01/27 16:02:01;;;;;;;14.50;8.02;;;;;;;0.46;88.81;96994.41;10283122;28;20124;-47
2023/01/27 16:07:03;;;;;;;17.00;10.50;;;;;;;0.49;88.83;96999.56;10280122;28;20128;-46
2023/01/27 16:12:26;;;;;;;31.77;21.83;;;;;;;0.73;88.21;97001.88;10284871;28;20525;-47
2023/01/27 16:17:25;;;;;;;20.73;12.20;;;;;;;0.89;87.60;97006.56;10286595;28;20081;-46
2023/01/27 16:22:27;;;;;;;53.20;31.23;;;;;;;1.03;87.45;97006.03;10284643;28;20125;-48
2023/01/27 16:28:13;;;;;;;25.33;16.33;;;;;;;0.81;88.67;97012.31;10286353;28;20068;-46
2023/01/27 16:33:23;;;;;;;43.97;29.48;;;;;;;0.97;88.27;97008.47;10286523;28;20124;-48
2023/01/27 16:38:36;;;;;;;30.08;20.25;;;;;;;0.56;88.68;96964.88;10291842;28;20069;-53
2023/01/27 16:43:48;;;;;;;22.13;14.73;;;;;;;0.80;88.63;97011.47;10293335;28;20454;-46
2023/01/27 16:48:49;;;;;;;23.20;16.42;;;;;;;0.61;88.61;97014.34;10294334;28;20450;-46
2023/01/27 16:53:50;;;;;;;21.33;12.75;;;;;;;0.50;89.03;97016.63;10294528;28;20492;-49
2023/01/27 16:58:52;;;;;;;23.90;16.70;;;;;;;0.37;88.85;97020.53;10292949;28;20054;-45
2023/01/27 17:03:56;;;;;;;41.33;19.00;;;;;;;0.44;88.61;97027.53;10289361;28;20535;-46
2023/01/27 17:08:55;;;;;;;40.25;20.20;;;;;;;0.55;88.09;97026.97;10291518;28;20077;-47
2023/01/27 17:14:00;;;;;;;;;;;;;;;0.47;87.93;97031.84;10288940;28;20068;-46
2023/01/27 17:19:08;;;;;;;15.70;9.88;;;;;;;-0.02;87.38;96967.63;10285390;28;19956;-46
2023/01/27 17:24:16;;;;;;;22.97;14.90;;;;;;;0.37;87.30;97030.75;10287507;28;20532;-46
2023/01/27 17:29:20;;;;;;;21.27;13.77;;;;;;;0.40;86.84;97043.56;10288223;28;20081;-48
2023/01/27 17:34:20;;;;;;;16.13;10.45;;;;;;;-0.01;87.50;96982.09;10287317;28;20065;-48
2023/01/27 17:39:25;;;;;;;19.63;11.38;;;;;;;0.26;88.03;97043.22;10290260;28;20073;-48
2023/01/27 17:44:24;;;;;;;11.40;6.93;;;;;;;-0.13;88.66;96997.06;10287433;28;20505;-46
2023/01/27 17:49:23;;;;;;;20.92;13.77;;;;;;;0.19;88.80;97048.09;10288721;28;20512;-46
2023/01/27 17:54:24;;;;;;;;;;;;;;;0.22;88.94;97050.75;10289351;28;20076;-48
2023/01/27 17:59:25;;;;;;;12.75;8.48;;;;;;;0.26;89.08;97045.78;10289074;28;20279;-46
2023/01/27 18:04:24;;;;;;;11.00;7.75;;;;;;;0.07;90.14;97056.28;10283813;28;20077;-46
2023/01/27 18:09:25;;;;;;;17.55;11.48;;;;;;;-0.15;90.32;97024.19;10288715;28;20072;-48
2023/01/27 18:14:25;;;;;;;10.18;7.35;;;;;;;0.24;90.41;97064.41;10287345;28;20068;-49
2023/01/27 18:19:24;;;;;;;13.35;8.73;;;;;;;0.41;89.71;97055.53;10287632;28;20494;-48
2023/01/27 18:24:23;;;;;;;19.05;11.57;;;;;;;0.43;89.92;97050.47;10287663;28;20584;-48
2023/01/27 18:29:42;;;;;;;;;;;;;;;0.65;89.70;97074.88;10287727;28;20077;-51
2023/01/27 18:34:47;;;;;;;15.25;8.75;;;;;;;0.70;89.64;97083.53;10285962;28;20409;-48
2023/01/27 18:39:46;;;;;;;13.68;10.60;;;;;;;0.94;88.92;97087.56;10286849;28;20085;-46
2023/01/27 18:44:47;;;;;;;;;;;;;;;1.10;88.68;97087.13;10284912;28;20084;-46
2023/01/27 18:50:05;;;;;;;53.55;36.30;;;;;;;1.19;89.04;97083.94;10285692;28;19957;-50
2023/01/27 18:55:22;;;;;;;43.28;28.95;;;;;;;1.27;88.48;97088.41;10285330;28;20068;-46
2023/01/27 19:00:33;;;;;;;31.02;20.08;;;;;;;1.26;87.72;97085.81;10286310;28;20104;-49
2023/01/27 19:05:34;;;;;;;21.98;13.57;;;;;;;1.37;88.62;97097.16;10284209;28;20184;-46
2023/01/27 19:10:33;;;;;;;25.77;17.27;;;;;;;1.40;87.34;97092.13;10285820;28;20069;-46
2023/01/27 19:15:36;;;;;;;44.65;29.23;;;;;;;1.44;86.16;97088.81;10285194;28;20068;-48
2023/01/27 19:20:35;;;;;;;30.40;20.08;;;;;;;1.33;86.74;97106.44;10286018;28;20073;-49
2023/01/27 19:25:34;;;;;;;24.98;15.43;;;;;;;1.18;86.21;97082.19;10284117;28;20033;-46
2023/01/27 19:30:36;;;;;;;15.32;10.93;;;;;;;0.98;85.46;97107.25;10283592;28;20053;-46
2023/01/27 19:35:35;;;;;;;17.73;11.95;;;;;;;0.92;86.17;97110.53;10284588;28;20076;-46
2023/01/27 19:40:34;;;;;;;;;;;;;;;0.75;86.43;97102.38;10285344;28;20779;-48
2023/01/27 19:45:33;;;;;;;22.77;15.02;;;;;;;0.62;86.16;97087.59;10293189;28;20470;-49
2023/01/27 19:50:32;;;;;;;18.25;13.30;;;;;;;0.69;86.42;97107.34;10281725;28;20042;-46
2023/01/27 19:55:31;;;;;;;;;;;;;;;0.81;86.58;97115.34;10284010;28;20069;-48
2023/01/27 20:00:35;;;;;;;20.98;14.23;;;;;;;0.88;86.42;97112.13;10284541;28;19976;-49
2023/01/27 20:05:34;;;;;;;21.40;14.82;;;;;;;0.59;86.64;97098.56;10285094;28;20513;-49
2023/01/27 20:10:33;;;;;;;19.33;13.55;;;;;;;0.63;87.02;97115.69;10288858;28;20508;-47
2023/01/27 20:15:41;;;;;;;10.30;6.88;;;;;;;0.50;87.54;97112.75;10291567;28;20486;-47
2023/01/27 20:20:40;;;;;;;19.88;14.48;;;;;;;0.22;87.57;97091.56;10294595;28;20077;-47
2023/01/27 20:25:39;;;;;;;25.65;16.73;;;;;;;0.62;87.44;97119.06;10291535;28;20520;-47
2023/01/27 20:30:40;;;;;;;25.33;16.55;;;;;;;0.56;87.16;97129.09;10291453;28;20501;-49
2023/01/27 20:35:39;;;;;;;22.40;13.75;;;;;;;0.47;87.74;97127.19;10291691;28;20496;-47
2023/01/27 20:40:38;;;;;;;19.40;13.20;;;;;;;0.58;87.81;97136.81;10291366;28;20116;-49
2023/01/27 20:45:37;;;;;;;21.10;13.90;;;;;;;0.68;87.65;97138.78;10287895;28;20497;-47
2023/01/27 20:50:36;;;;;;;20.70;12.70;;;;;;;0.71;87.79;97149.13;10292119;28;20077;-47
2023/01/27 20:55:35;;;;;;;18.52;11.32;;;;;;;0.61;87.70;97153.06;10288898;28;20036;-48
2023/01/27 21:00:34;;;;;;;25.15;15.52;;;;;;;0.68;87.74;97159.22;10291433;28;20069;-48
2023/01/27 21:05:33;;;;;;;29.13;18.17;;;;;;;0.74;87.50;97164.50;10291504;28;20118;-47
2023/01/27 21:10:32;;;;;;;27.98;17.85;;;;;;;0.84;87.18;97166.50;10291825;28;20038;-47
2023/01/27 21:15:31;;;;;;;25.77;15.43;;;;;;;0.75;87.66;97158.56;10291308;28;20044;-49
2023/01/27 21:20:30;;;;;;;25.27;15.27;;;;;;;0.65;87.64;97151.50;10290367;28;20042;-49
2023/01/27 21:25:29;;;;;;;19.77;12.93;;;;;;;0.86;87.05;97169.94;10290657;28;20471;-47
2023/01/27 21:30:28;;;;;;;;;;;;;;;0.77;87.42;97166.28;10291708;28;20045;-47
2023/01/27 21:35:27;;;;;;;25.00;15.95;;;;;;;0.93;87.15;97167.56;10288684;28;19952;-48
2023/01/27 21:40:26;;;;;;;15.57;10.10;;;;;;;0.94;86.92;97169.28;10290375;28;20045;-48
2023/01/27 21:45:25;;;;;;;;;;;;;;;1.08;86.53;97170.53;10291281;28;20582;-47
2023/01/27 21:50:24;;;;;;;33.47;19.00;;;;;;;0.52;86.36;97054.94;10290633;28;20004;-49
2023/01/27 21:55:24;;;;;;;;;;;;;;;1.36;86.06;97171.25;10290809;28;20073;-47
2023/01/27 22:00:25;;;;;;;32.92;18.92;;;;;;;1.43;85.71;97171.44;10290279;28;20372;-49
2023/01/27 22:05:26;;;;;;;32.33;19.45;;;;;;;1.50;85.34;97175.03;10289216;28;20084;-47
2023/01/27 22:10:27;;;;;;;28.85;17.15;;;;;;;1.45;84.72;97171.50;10289514;28;20469;-49
2023/01/27 22:15:30;;;;;;;16.88;10.88;;;;;;;1.56;84.56;97179.44;10288738;28;20069;-48
2023/01/27 22:20:29;;;;;;;9.48;5.68;;;;;;;1.50;84.42;97172.47;10286556;28;20078;-48
2023/01/27 22:25:28;;;;;;;8.60;5.95;;;;;;;1.59;84.55;97175.25;10288546;28;20044;-49
2023/01/27 22:30:27;;;;;;;32.28;19.05;;;;;;;1.65;84.19;97174.56;10289058;28;20050;-47
2023/01/27 22:35:25;;;;;;;18.15;13.23;;;;;;;1.63;83.68;97161.72;10288270;28;20041;-47
2023/01/27 22:40:24;;;;;;;15.68;10.13;;;;;;;1.69;83.60;97172.13;10288019;28;20044;-47
2023/01/27 22:45:24;;;;;;;26.13;15.40;;;;;;;1.69;84.60;97171.22;10288533;28;20042;-47
2023/01/27 22:50:23;;;;;;;63.80;29.98;;;;;;;1.73;83.51;97170.47;10289335;28;20460;-48
2023/01/27 22:55:22;;;;;;;24.67;14.98;;;;;;;1.70;83.21;97171.28;10287651;28;20579;-46
2023/01/27 23:00:21;;;;;;;24.52;16.98;;;;;;;1.65;83.73;97170.28;10285868;28;20050;-46
2023/01/27 23:05:20;;;;;;;31.40;20.77;;;;;;;1.52;83.97;97152.91;10284547;28;20033;-48
2023/01/27 23:10:19;;;;;;;52.45;32.95;;;;;;;1.62;84.37;97165.13;10283158;28;20069;-48
2023/01/27 23:15:18;;;;;;;59.33;35.30;;;;;;;1.74;84.50;97162.84;10285172;28;20048;-48
2023/01/27 23:20:17;;;;;;;55.13;34.80;;;;;;;1.77;84.42;97162.06;10286142;28;20474;-48
2023/01/27 23:25:16;;;;;;;52.22;34.17;;;;;;;1.74;84.20;97160.28;10286793;28;20095;-47
2023/01/27 23:30:15;;;;;;;48.50;30.00;;;;;;;1.73;84.33;97163.66;10286559;28;20538;-48
2023/01/27 23:35:14;;;;;;;45.25;29.77;;;;;;;1.83;84.46;97169.00;10286447;28;20050;-47
2023/01/27 23:40:12;;;;;;;;;;;;;;;1.85;84.61;97162.22;10287132;28;20470;-47
2023/01/27 23:45:11;;;;;;;39.38;26.65;;;;;;;1.91;84.77;97158.13;10282667;28;20408;-48
2023/01/27 23:50:10;;;;;;;39.33;26.30;;;;;;;1.91;84.49;97173.47;10286369;28;20149;-48
2023/01/27 23:55:11;;;;;;;37.22;24.58;;;;;;;1.94;84.55;97167.56;10285965;28;20129;-49
